Time;durP1;ratioP1;P1;durP2;ratioP2;P2;SDS_P1;SDS_P2;PMS_P1;PMS_P2;Temp;Humidity;BMP_temperature;BMP_pressure;BME280_temperature;BME280_humidity;BME280_pressure;Samples;Min_cycle;Max_cycle;Signal;HPM_P1;HPM_P2
2022/12/07 00:01:08;;;;;;;29.40;18.13;;;;;;;;;;5012837;28;20108;-84
2022/12/07 00:03:35;;;;;;;20.25;15.23;;;;;;;;;;5012839;28;20382;-84
2022/12/07 00:06:01;;;;;;;17.55;12.38;;;;;;;;;;4995047;28;20458;-84
2022/12/07 00:08:28;;;;;;;15.65;11.25;;;;;;;;;;5012781;28;20445;-84
2022/12/07 00:10:54;;;;;;;22.95;15.55;;;;;;;;;;5012737;28;20026;-84
2022/12/07 00:13:20;;;;;;;28.45;21.38;;;;;;;;;;4995197;28;20045;-83
2022/12/07 00:15:46;;;;;;;35.55;26.60;;;;;;;;;;5012575;28;20509;-84
2022/12/07 00:18:12;;;;;;;42.30;32.08;;;;;;;;;;4994996;28;20085;-84
2022/12/07 00:20:38;;;;;;;45.47;32.88;;;;;;;;;;4995045;28;20025;-84
2022/12/07 00:23:04;;;;;;;41.55;29.67;;;;;;;;;;5012596;28;20084;-84
2022/12/07 00:25:30;;;;;;;26.02;18.60;;;;;;;;;;5012921;28;20026;-84
2022/12/07 00:27:56;;;;;;;32.20;21.80;;;;;;;;;;5012409;28;20105;-84
2022/12/07 00:30:23;;;;;;;24.25;18.25;;;;;;;;;;5012717;28;20106;-84
2022/12/07 00:32:49;;;;;;;27.67;20.85;;;;;;;;;;4994954;28;20033;-84
2022/12/07 00:35:15;;;;;;;32.10;22.58;;;;;;;;;;5012514;28;20018;-83
2022/12/07 00:37:41;;;;;;;25.63;20.08;;;;;;;;;;5012682;28;20021;-83
2022/12/07 00:40:07;;;;;;;20.60;16.88;;;;;;;;;;5012488;28;20080;-84
2022/12/07 00:42:34;;;;;;;23.80;17.85;;;;;;;;;;4995003;28;20064;-83
2022/12/07 00:45:00;;;;;;;20.27;14.75;;;;;;;;;;5012426;28;20022;-84
2022/12/07 00:47:26;;;;;;;21.70;16.65;;;;;;;;;;5012486;28;20029;-84
2022/12/07 00:49:52;;;;;;;18.38;14.30;;;;;;;;;;5012415;28;20062;-84
2022/12/07 00:52:18;;;;;;;17.42;13.77;;;;;;;;;;5012401;28;20025;-84
2022/12/07 00:54:44;;;;;;;17.75;12.73;;;;;;;;;;5012555;28;20111;-83
2022/12/07 00:57:10;;;;;;;19.77;14.38;;;;;;;;;;5013859;28;20422;-84
2022/12/07 00:59:36;;;;;;;21.65;15.98;;;;;;;;;;5016291;28;20026;-84
2022/12/07 01:02:02;;;;;;;31.52;24.85;;;;;;;;;;5015970;28;20061;-84
2022/12/07 01:04:29;;;;;;;37.05;27.88;;;;;;;;;;5016001;28;20078;-84
2022/12/07 01:06:55;;;;;;;32.97;26.60;;;;;;;;;;4998249;28;20489;-84
2022/12/07 01:09:21;;;;;;;37.03;26.58;;;;;;;;;;4998422;28;20026;-84
2022/12/07 01:11:47;;;;;;;32.20;23.50;;;;;;;;;;5016145;28;20029;-84
2022/12/07 01:14:13;;;;;;;27.88;22.42;;;;;;;;;;5015747;28;20029;-84
2022/12/07 01:16:40;;;;;;;28.10;22.70;;;;;;;;;;5015927;28;20033;-84
2022/12/07 01:19:06;;;;;;;25.08;20.55;;;;;;;;;;4998018;28;20030;-85
2022/12/07 01:21:37;;;;;;;22.33;18.55;;;;;;;;;;4998495;28;20018;-84
2022/12/07 01:24:07;;;;;;;23.45;17.27;;;;;;;;;;4998043;28;20030;-84
2022/12/07 01:26:33;;;;;;;25.25;18.45;;;;;;;;;;5015836;28;20033;-84
2022/12/07 01:29:00;;;;;;;26.30;18.40;;;;;;;;;;4997843;28;20038;-84
2022/12/07 01:31:28;;;;;;;23.55;17.63;;;;;;;;;;5015669;28;20028;-84
2022/12/07 01:33:55;;;;;;;21.48;15.52;;;;;;;;;;4997947;28;20393;-84
2022/12/07 01:36:22;;;;;;;21.50;16.42;;;;;;;;;;5015377;28;20080;-84
2022/12/07 01:38:51;;;;;;;26.42;18.48;;;;;;;;;;5015661;28;20105;-84
2022/12/07 01:41:17;;;;;;;21.98;17.27;;;;;;;;;;5015322;28;20028;-84
2022/12/07 01:44:02;;;;;;;18.30;14.18;;;;;;;;;;5015530;28;20485;-84
2022/12/07 01:46:28;;;;;;;28.65;20.33;;;;;;;;;;4997798;28;20026;-85
2022/12/07 01:48:54;;;;;;;24.52;19.77;;;;;;;;;;5015082;28;20165;-84
2022/12/07 01:51:20;;;;;;;25.35;20.13;;;;;;;;;;5015351;28;20057;-84
2022/12/07 01:53:46;;;;;;;28.70;22.15;;;;;;;;;;5015149;28;20025;-84
2022/12/07 01:56:16;;;;;;;29.85;23.58;;;;;;;;;;4997452;28;20076;-84
2022/12/07 01:58:42;;;;;;;34.13;22.65;;;;;;;;;;5015161;28;20392;-84
2022/12/07 02:01:08;;;;;;;30.83;23.75;;;;;;;;;;4997262;28;20032;-84
2022/12/07 02:03:37;;;;;;;28.48;22.02;;;;;;;;;;5014863;28;20054;-84
2022/12/07 02:06:04;;;;;;;23.23;18.63;;;;;;;;;;5014737;28;20465;-84
2022/12/07 02:08:30;;;;;;;24.80;19.00;;;;;;;;;;5013708;28;20466;-84
2022/12/07 02:10:56;;;;;;;19.70;16.70;;;;;;;;;;4997123;28;20456;-84
2022/12/07 02:13:24;;;;;;;24.25;17.23;;;;;;;;;;5014913;28;20084;-84
2022/12/07 02:16:05;;;;;;;20.65;15.57;;;;;;;;;;5014788;28;20056;-83
2022/12/07 02:18:47;;;;;;;16.30;12.32;;;;;;;;;;5014939;28;20057;-84
2022/12/07 02:21:25;;;;;;;17.20;13.10;;;;;;;;;;5014735;28;20057;-84
2022/12/07 02:23:51;;;;;;;12.65;9.90;;;;;;;;;;5014791;28;20084;-84
2022/12/07 02:26:36;;;;;;;16.17;12.00;;;;;;;;;;5014548;28;20499;-84
2022/12/07 02:29:02;;;;;;;;;;;;;;;;;;5014886;28;20037;-84
2022/12/07 02:31:29;;;;;;;17.10;11.35;;;;;;;;;;5014489;28;19905;-84
2022/12/07 02:34:00;;;;;;;19.55;13.95;;;;;;;;;;5014580;28;20030;-84
2022/12/07 02:36:29;;;;;;;17.55;13.90;;;;;;;;;;5014451;28;20030;-84
2022/12/07 02:38:58;;;;;;;24.38;19.73;;;;;;;;;;4996776;28;20366;-84
2022/12/07 02:41:24;;;;;;;24.20;19.27;;;;;;;;;;5014391;28;20378;-84
2022/12/07 02:43:55;;;;;;;23.38;19.63;;;;;;;;;;5014358;28;20028;-84
2022/12/07 02:46:23;;;;;;;25.70;18.63;;;;;;;;;;5014146;28;20057;-84
2022/12/07 02:48:50;;;;;;;23.27;18.58;;;;;;;;;;5014214;28;20034;-84
2022/12/07 02:51:17;;;;;;;23.52;18.10;;;;;;;;;;4996418;28;20420;-84
2022/12/07 02:53:44;;;;;;;26.60;20.33;;;;;;;;;;5014153;28;20014;-84
2022/12/07 02:56:16;;;;;;;27.23;19.15;;;;;;;;;;5013906;28;20389;-83
2022/12/07 02:58:55;;;;;;;24.23;17.70;;;;;;;;;;4996536;28;20389;-84
2022/12/07 03:01:39;;;;;;;23.13;19.17;;;;;;;;;;5013991;28;20034;-84
2022/12/07 03:04:05;;;;;;;;;;;;;;;;;;4996309;28;20417;-84
2022/12/07 03:06:34;;;;;;;21.98;16.40;;;;;;;;;;4996140;28;19906;-84
2022/12/07 03:09:19;;;;;;;20.25;15.65;;;;;;;;;;5013834;28;20084;-84
2022/12/07 03:11:49;;;;;;;19.17;15.02;;;;;;;;;;5013831;28;20025;-84
2022/12/07 03:14:21;;;;;;;20.23;16.77;;;;;;;;;;5013586;28;20103;-84
2022/12/07 03:16:58;;;;;;;19.58;16.13;;;;;;;;;;5013669;28;20029;-84
2022/12/07 03:19:25;;;;;;;19.45;15.85;;;;;;;;;;5013338;28;20030;-84
2022/12/07 03:21:57;;;;;;;20.20;16.75;;;;;;;;;;5013587;28;20060;-84
2022/12/07 03:24:27;;;;;;;20.75;15.85;;;;;;;;;;5013597;28;20025;-84
2022/12/07 03:26:55;;;;;;;19.90;14.70;;;;;;;;;;5013450;28;20504;-84
2022/12/07 03:29:27;;;;;;;15.65;13.68;;;;;;;;;;5013472;28;20117;-84
2022/12/07 03:32:00;;;;;;;21.75;14.52;;;;;;;;;;4995611;28;20073;-84
2022/12/07 03:34:35;;;;;;;19.25;14.45;;;;;;;;;;5013344;28;20429;-83
2022/12/07 03:37:04;;;;;;;19.55;14.60;;;;;;;;;;5013423;28;20022;-84
2022/12/07 03:39:39;;;;;;;20.50;15.13;;;;;;;;;;5013392;28;20118;-84
2022/12/07 03:42:06;;;;;;;20.17;15.10;;;;;;;;;;4995579;28;20036;-84
2022/12/07 03:44:33;;;;;;;20.27;15.75;;;;;;;;;;5013129;28;20050;-84
2022/12/07 03:47:05;;;;;;;19.08;14.65;;;;;;;;;;5013119;28;20029;-84
2022/12/07 03:49:50;;;;;;;19.38;13.90;;;;;;;;;;5013063;28;20037;-84
2022/12/07 03:52:19;;;;;;;20.27;14.45;;;;;;;;;;5012886;28;20061;-85
2022/12/07 03:54:49;;;;;;;17.63;13.27;;;;;;;;;;5013030;28;20046;-82
2022/12/07 03:57:15;;;;;;;17.55;13.43;;;;;;;;;;5012817;28;20481;-82
2022/12/07 03:59:42;;;;;;;17.90;13.15;;;;;;;;;;5013101;28;20038;-82
2022/12/07 04:02:08;;;;;;;22.00;14.20;;;;;;;;;;5012939;28;20496;-82
2022/12/07 04:04:35;;;;;;;19.30;13.65;;;;;;;;;;5012691;28;20544;-82
2022/12/07 04:07:01;;;;;;;18.38;13.63;;;;;;;;;;5012998;28;20045;-82
2022/12/07 04:09:27;;;;;;;17.35;13.00;;;;;;;;;;5012647;28;20030;-82
2022/12/07 04:11:53;;;;;;;18.08;13.15;;;;;;;;;;5012792;28;20037;-82
2022/12/07 04:14:19;;;;;;;16.05;12.57;;;;;;;;;;5012650;28;20096;-82
2022/12/07 04:16:56;;;;;;;16.88;12.63;;;;;;;;;;5012303;28;20059;-82
2022/12/07 04:19:23;;;;;;;16.02;12.20;;;;;;;;;;5012593;28;20034;-82
2022/12/07 04:21:49;;;;;;;17.23;11.93;;;;;;;;;;4995085;28;20454;-82
2022/12/07 04:24:15;;;;;;;17.30;11.55;;;;;;;;;;5012511;28;20032;-82
2022/12/07 04:26:42;;;;;;;15.85;11.40;;;;;;;;;;5012764;28;20018;-82
2022/12/07 04:29:08;;;;;;;16.50;11.98;;;;;;;;;;5012603;28;20444;-81
2022/12/07 04:31:35;;;;;;;14.98;11.38;;;;;;;;;;5013303;28;20026;-82
2022/12/07 04:34:01;;;;;;;17.08;11.60;;;;;;;;;;5016737;28;20021;-82
2022/12/07 04:36:27;;;;;;;17.80;11.98;;;;;;;;;;5016389;28;20037;-82
2022/12/07 04:38:54;;;;;;;15.80;12.18;;;;;;;;;;4998934;28;20432;-82
2022/12/07 04:41:26;;;;;;;13.05;10.57;;;;;;;;;;5016435;28;20381;-82
2022/12/07 04:43:53;;;;;;;16.38;12.15;;;;;;;;;;5016278;28;20046;-82
2022/12/07 04:46:20;;;;;;;14.60;11.38;;;;;;;;;;5016137;28;20433;-82
2022/12/07 04:48:46;;;;;;;15.82;10.75;;;;;;;;;;5016307;28;20034;-82
2022/12/07 04:51:15;;;;;;;19.25;11.23;;;;;;;;;;5017994;28;20073;-82
2022/12/07 04:53:45;;;;;;;16.10;10.68;;;;;;;;;;5037014;28;20431;-82
2022/12/07 04:56:11;;;;;;;14.43;10.43;;;;;;;;;;5033590;28;20021;-82
2022/12/07 04:58:37;;;;;;;13.38;9.38;;;;;;;;;;5020707;28;20033;-81
2022/12/07 05:01:03;;;;;;;16.55;11.48;;;;;;;;;;5016038;28;20029;-81
2022/12/07 05:03:33;;;;;;;15.38;10.32;;;;;;;;;;5015833;28;20049;-82
2022/12/07 05:06:02;;;;;;;16.13;11.02;;;;;;;;;;4997702;28;20088;-81
2022/12/07 05:08:28;;;;;;;29.95;25.00;;;;;;;;;;5013168;28;20034;-81
2022/12/07 05:10:54;;;;;;;22.65;16.15;;;;;;;;;;5014284;28;20022;-81
2022/12/07 05:13:20;;;;;;;16.65;12.57;;;;;;;;;;5013955;28;20113;-82
2022/12/07 05:15:47;;;;;;;36.13;27.08;;;;;;;;;;5023451;28;20088;-83
2022/12/07 05:18:16;;;;;;;16.00;12.13;;;;;;;;;;4996670;28;20523;-82
2022/12/07 05:20:56;;;;;;;15.23;11.00;;;;;;;;;;5017815;28;20030;-83
2022/12/07 05:23:57;;;;;;;;;;;;;;;;;;;;;
2022/12/07 05:26:44;;;;;;;31.15;20.83;;;;;;;;;;5015554;28;20042;-83
2022/12/07 05:29:14;;;;;;;32.17;21.33;;;;;;;;;;4997872;28;20040;-81
2022/12/07 05:31:59;;;;;;;;;;;;;;;;;;;;;
2022/12/07 05:34:26;;;;;;;29.80;19.92;;;;;;;;;;5015161;28;20040;-80
2022/12/07 05:36:52;;;;;;;27.55;16.80;;;;;;;;;;4997722;28;20233;-79
2022/12/07 05:39:18;;;;;;;40.20;27.70;;;;;;;;;;5015071;28;20434;-80
2022/12/07 05:44:31;;;;;;;21.88;15.32;;;;;;;;;;5014960;28;20088;-81
2022/12/07 05:47:00;;;;;;;22.15;16.13;;;;;;;;;;5018196;28;20030;-80
2022/12/07 05:49:26;;;;;;;26.50;16.05;;;;;;;;;;5016659;28;20021;-80
2022/12/07 05:52:04;;;;;;;19.02;13.38;;;;;;;;;;5022087;28;20034;-81
2022/12/07 05:54:30;;;;;;;59.45;15.35;;;;;;;;;;4996673;28;20029;-81
2022/12/07 05:56:59;;;;;;;34.28;30.83;;;;;;;;;;4999542;28;20127;-81
2022/12/07 05:59:28;;;;;;;18.27;16.45;;;;;;;;;;5034596;28;20026;-80
2022/12/07 06:02:06;;;;;;;12.95;10.45;;;;;;;;;;5016595;28;20022;-80
2022/12/07 06:04:36;;;;;;;16.15;11.75;;;;;;;;;;5031738;28;20076;-80
2022/12/07 06:07:11;;;;;;;16.20;11.73;;;;;;;;;;5014972;28;20113;-81
2022/12/07 06:09:41;;;;;;;15.02;10.55;;;;;;;;;;5025253;28;20440;-81
2022/12/07 06:12:35;;;;;;;14.10;10.98;;;;;;;;;;4957144;28;20049;-81
2022/12/07 06:15:01;;;;;;;15.15;10.93;;;;;;;;;;4955035;28;20147;-80
2022/12/07 06:17:53;;;;;;;17.13;10.93;;;;;;;;;;4980159;28;20038;-81
2022/12/07 06:20:19;;;;;;;24.08;15.82;;;;;;;;;;4935005;28;20051;-82
2022/12/07 06:22:45;;;;;;;27.20;20.08;;;;;;;;;;4975218;28;20034;-80
2022/12/07 06:25:11;;;;;;;35.13;20.33;;;;;;;;;;4991177;28;20030;-78
2022/12/07 06:27:37;;;;;;;25.27;17.30;;;;;;;;;;4978962;28;20483;-80
2022/12/07 06:30:06;;;;;;;25.92;15.98;;;;;;;;;;4991982;28;20030;-79
2022/12/07 06:32:33;;;;;;;22.45;13.75;;;;;;;;;;4971699;28;20159;-80
2022/12/07 06:34:59;;;;;;;19.65;14.77;;;;;;;;;;4972755;28;20034;-78
2022/12/07 06:37:26;;;;;;;20.65;15.20;;;;;;;;;;4973324;28;20058;-78
2022/12/07 06:39:55;;;;;;;31.63;19.63;;;;;;;;;;4973077;28;20062;-80
2022/12/07 06:42:26;;;;;;;30.70;18.95;;;;;;;;;;4961675;28;20584;-79
2022/12/07 06:44:52;;;;;;;31.45;19.73;;;;;;;;;;5014453;28;20030;-78
2022/12/07 06:47:18;;;;;;;29.83;18.83;;;;;;;;;;5013597;28;20480;-79
2022/12/07 06:49:46;;;;;;;27.50;16.15;;;;;;;;;;5020966;28;20026;-79
2022/12/07 06:52:12;;;;;;;28.45;17.48;;;;;;;;;;5023478;28;20029;-78
2022/12/07 06:54:41;;;;;;;28.55;17.42;;;;;;;;;;4998394;28;20030;-80
2022/12/07 06:57:07;;;;;;;27.35;15.95;;;;;;;;;;5022127;28;20061;-80
2022/12/07 06:59:34;;;;;;;20.48;15.13;;;;;;;;;;5010539;28;20026;-81
2022/12/07 07:02:00;;;;;;;21.20;13.57;;;;;;;;;;5013743;28;20057;-78
2022/12/07 07:04:26;;;;;;;18.40;13.00;;;;;;;;;;5002681;28;20049;-81
2022/12/07 07:06:52;;;;;;;17.50;12.27;;;;;;;;;;5027953;28;20500;-78
2022/12/07 07:09:18;;;;;;;15.52;11.32;;;;;;;;;;5016257;28;20111;-80
2022/12/07 07:11:51;;;;;;;14.77;10.10;;;;;;;;;;5013155;28;20388;-80
2022/12/07 07:14:18;;;;;;;21.45;13.90;;;;;;;;;;4994939;28;20032;-80
2022/12/07 07:16:45;;;;;;;21.70;15.50;;;;;;;;;;5012913;28;20026;-80
2022/12/07 07:19:11;;;;;;;23.65;15.77;;;;;;;;;;5007395;28;20041;-81
2022/12/07 07:21:37;;;;;;;15.73;12.30;;;;;;;;;;5013118;28;20166;-81
2022/12/07 07:24:03;;;;;;;15.45;10.68;;;;;;;;;;5015120;28;20153;-80
2022/12/07 07:26:30;;;;;;;11.55;9.90;;;;;;;;;;5013812;28;20028;-79
2022/12/07 07:28:56;;;;;;;17.02;10.95;;;;;;;;;;5013179;28;20113;-81
2022/12/07 07:31:22;;;;;;;17.27;12.13;;;;;;;;;;5021983;28;20101;-79
2022/12/07 07:33:48;;;;;;;14.27;11.43;;;;;;;;;;5007017;28;20113;-80
2022/12/07 07:36:15;;;;;;;16.77;10.80;;;;;;;;;;5010570;28;20048;-81
2022/12/07 07:38:41;;;;;;;16.45;10.23;;;;;;;;;;5012278;28;20072;-81
2022/12/07 07:41:07;;;;;;;14.45;9.88;;;;;;;;;;5006750;28;20056;-81
2022/12/07 07:43:33;;;;;;;13.50;9.77;;;;;;;;;;5009809;28;20050;-83
2022/12/07 07:46:00;;;;;;;13.68;9.65;;;;;;;;;;4994627;28;20030;-83
2022/12/07 07:48:26;;;;;;;17.98;10.65;;;;;;;;;;5015289;28;20076;-81
2022/12/07 07:51:20;;;;;;;13.30;9.63;;;;;;;;;;5025984;28;20030;-82
2022/12/07 07:53:47;;;;;;;14.10;9.38;;;;;;;;;;4993223;28;20108;-81
2022/12/07 07:56:13;;;;;;;25.95;11.27;;;;;;;;;;4989316;28;20026;-81
2022/12/07 07:58:39;;;;;;;15.40;9.82;;;;;;;;;;4993798;28;20049;-81
2022/12/07 08:01:06;;;;;;;13.68;10.27;;;;;;;;;;5010032;28;20028;-79
2022/12/07 08:03:45;;;;;;;24.10;10.45;;;;;;;;;;4988318;28;20053;-82
2022/12/07 08:06:12;;;;;;;12.77;8.48;;;;;;;;;;4990743;28;20022;-79
2022/12/07 08:08:40;;;;;;;12.50;8.15;;;;;;;;;;5010945;28;20061;-83
2022/12/07 08:11:07;;;;;;;14.68;9.85;;;;;;;;;;4995836;28;20021;-78
2022/12/07 08:13:33;;;;;;;18.58;10.75;;;;;;;;;;5011991;28;20081;-83
2022/12/07 08:16:03;;;;;;;16.42;12.20;;;;;;;;;;5012094;28;20537;-81
2022/12/07 08:18:29;;;;;;;15.15;11.20;;;;;;;;;;5011260;28;20119;-80
2022/12/07 08:21:00;;;;;;;14.13;10.70;;;;;;;;;;5010879;28;20077;-80
2022/12/07 08:23:26;;;;;;;18.75;10.20;;;;;;;;;;5015281;28;20033;-81
2022/12/07 08:25:52;;;;;;;15.18;9.40;;;;;;;;;;5024270;28;20049;-80
2022/12/07 08:28:19;;;;;;;11.32;8.75;;;;;;;;;;5013973;28;20033;-79
2022/12/07 08:30:45;;;;;;;15.35;9.45;;;;;;;;;;5016451;28;20112;-81
2022/12/07 08:33:11;;;;;;;14.68;9.43;;;;;;;;;;5014380;28;20465;-84
2022/12/07 08:35:37;;;;;;;13.43;9.30;;;;;;;;;;5013717;28;20030;-79
2022/12/07 08:38:04;;;;;;;18.38;12.90;;;;;;;;;;5011991;28;20440;-81
2022/12/07 08:40:30;;;;;;;12.90;10.85;;;;;;;;;;5007332;28;20030;-81
2022/12/07 08:42:56;;;;;;;14.38;9.77;;;;;;;;;;5007835;28;20053;-81
2022/12/07 08:45:22;;;;;;;23.73;18.00;;;;;;;;;;5016433;28;20049;-79
2022/12/07 08:48:01;;;;;;;19.60;13.85;;;;;;;;;;5011588;28;20635;-77
2022/12/07 08:50:28;;;;;;;19.52;12.10;;;;;;;;;;5029352;28;20032;-78
2022/12/07 08:52:55;;;;;;;21.67;13.50;;;;;;;;;;5011858;28;20029;-79
2022/12/07 08:55:22;;;;;;;16.77;10.52;;;;;;;;;;5017669;28;20029;-77
2022/12/07 08:57:48;;;;;;;18.05;10.85;;;;;;;;;;5017776;28;20025;-78
2022/12/07 09:00:14;;;;;;;18.17;11.05;;;;;;;;;;5019299;28;20029;-80
2022/12/07 09:02:40;;;;;;;222.35;71.15;;;;;;;;;;4992799;28;20038;-80
2022/12/07 09:05:07;;;;;;;68.90;28.08;;;;;;;;;;5013348;28;20025;-79
2022/12/07 09:07:34;;;;;;;51.70;21.63;;;;;;;;;;4996029;28;20404;-78
2022/12/07 09:10:00;;;;;;;17.83;11.32;;;;;;;;;;5008102;28;20073;-78
2022/12/07 09:12:26;;;;;;;20.42;14.07;;;;;;;;;;5016216;28;20022;-79
2022/12/07 09:14:52;;;;;;;12.00;8.80;;;;;;;;;;5016721;28;20895;-79
2022/12/07 09:17:19;;;;;;;24.70;12.48;;;;;;;;;;5020825;28;20025;-80
2022/12/07 09:19:45;;;;;;;17.45;10.77;;;;;;;;;;5018729;28;20417;-79
2022/12/07 09:22:11;;;;;;;43.63;16.50;;;;;;;;;;5012123;28;20080;-82
2022/12/07 09:24:37;;;;;;;38.78;15.73;;;;;;;;;;5020258;28;20445;-79
2022/12/07 09:27:03;;;;;;;27.75;15.88;;;;;;;;;;5026032;28;20059;-84
2022/12/07 09:29:29;;;;;;;40.17;19.90;;;;;;;;;;5004967;28;20021;-80
2022/12/07 09:31:55;;;;;;;32.05;15.90;;;;;;;;;;5018778;28;20025;-80
2022/12/07 09:34:21;;;;;;;67.35;24.30;;;;;;;;;;5014123;28;20363;-79
2022/12/07 09:36:48;;;;;;;76.82;29.52;;;;;;;;;;5011934;28;20034;-82
2022/12/07 09:39:14;;;;;;;14.35;8.65;;;;;;;;;;5011304;28;20057;-83
2022/12/07 09:41:41;;;;;;;97.72;35.10;;;;;;;;;;4981739;28;20413;-79
2022/12/07 09:44:10;;;;;;;20.05;10.77;;;;;;;;;;5020859;28;20038;-78
2022/12/07 09:46:38;;;;;;;21.52;10.50;;;;;;;;;;5022178;28;20034;-79
2022/12/07 09:49:05;;;;;;;30.73;13.90;;;;;;;;;;5013368;28;20037;-78
2022/12/07 09:51:31;;;;;;;29.27;14.00;;;;;;;;;;5010406;28;20405;-80
2022/12/07 09:53:59;;;;;;;22.08;11.00;;;;;;;;;;5010505;28;20543;-79
2022/12/07 09:56:25;;;;;;;313.75;111.50;;;;;;;;;;5006294;28;20026;-79
2022/12/07 09:58:57;;;;;;;422.58;153.07;;;;;;;;;;5012376;28;20489;-80
2022/12/07 10:01:24;;;;;;;163.23;61.72;;;;;;;;;;5011683;28;20504;-80
2022/12/07 10:03:54;;;;;;;325.08;120.38;;;;;;;;;;4995936;28;20048;-80
2022/12/07 10:06:21;;;;;;;260.95;99.90;;;;;;;;;;5007125;28;20433;-80
2022/12/07 10:08:47;;;;;;;168.13;71.35;;;;;;;;;;5010640;28;20037;-80
2022/12/07 10:11:15;;;;;;;140.05;56.25;;;;;;;;;;5012023;28;20029;-79
2022/12/07 10:13:45;;;;;;;142.85;54.75;;;;;;;;;;5011019;28;20053;-79
2022/12/07 10:16:27;;;;;;;52.55;23.85;;;;;;;;;;5008696;28;20472;-83
2022/12/07 10:18:53;;;;;;;34.05;25.15;;;;;;;;;;4998673;28;20493;-80
2022/12/07 10:21:23;;;;;;;17.05;12.10;;;;;;;;;;5013233;28;20038;-81
2022/12/07 10:24:08;;;;;;;13.18;9.77;;;;;;;;;;5019208;28;20489;-81
2022/12/07 10:26:35;;;;;;;16.25;7.85;;;;;;;;;;5015559;28;20104;-78
2022/12/07 10:29:04;;;;;;;36.38;17.92;;;;;;;;;;5009663;28;20022;-79
2022/12/07 10:31:31;;;;;;;59.70;44.17;;;;;;;;;;5009604;28;20056;-79
2022/12/07 10:33:59;;;;;;;76.35;29.77;;;;;;;;;;5012805;28;20022;-81
2022/12/07 10:36:35;;;;;;;27.25;12.57;;;;;;;;;;5018775;28;20025;-81
2022/12/07 10:39:03;;;;;;;28.52;14.25;;;;;;;;;;5015803;28;20030;-79
2022/12/07 10:41:30;;;;;;;30.10;12.73;;;;;;;;;;5008633;28;20757;-80
2022/12/07 10:43:57;;;;;;;21.25;11.40;;;;;;;;;;5015538;28;20022;-81
2022/12/07 10:46:41;;;;;;;40.13;17.95;;;;;;;;;;5015958;28;20080;-79
2022/12/07 10:49:26;;;;;;;13.82;7.38;;;;;;;;;;5012268;28;20037;-78
2022/12/07 10:51:52;;;;;;;11.88;6.65;;;;;;;;;;5006292;28;20022;-69
2022/12/07 10:54:37;;;;;;;35.95;16.75;;;;;;;;;;4991328;28;20021;-80
2022/12/07 10:57:11;;;;;;;13.77;8.70;;;;;;;;;;5023954;28;20076;-81
2022/12/07 10:59:43;;;;;;;40.50;16.98;;;;;;;;;;5014601;28;20048;-80
2022/12/07 11:02:28;;;;;;;15.75;7.97;;;;;;;;;;5013244;28;20104;-80
2022/12/07 11:04:54;;;;;;;23.85;10.10;;;;;;;;;;5017364;28;20120;-81
2022/12/07 11:07:20;;;;;;;24.92;13.50;;;;;;;;;;5018160;28;20067;-79
2022/12/07 11:10:05;;;;;;;12.98;8.52;;;;;;;;;;5025694;28;20013;-81
2022/12/07 11:12:30;;;;;;;;;;;;;;;;;;5018074;28;20175;-81
2022/12/07 11:15:02;;;;;;;39.78;17.33;;;;;;;;;;4996194;28;19913;-81
2022/12/07 11:17:46;;;;;;;28.38;14.70;;;;;;;;;;5020586;28;20168;-81
2022/12/07 11:20:12;;;;;;;;;;;;;;;;;;5019736;28;20025;-81
2022/12/07 11:22:57;;;;;;;14.00;8.18;;;;;;;;;;5019984;28;19906;-82
2022/12/07 11:25:24;;;;;;;;;;;;;;;;;;4996801;28;20033;-83
2022/12/07 11:27:50;;;;;;;9.27;6.32;;;;;;;;;;5013760;28;19913;-81
2022/12/07 11:30:20;;;;;;;13.73;7.47;;;;;;;;;;5012748;28;20105;-80
2022/12/07 11:32:47;;;;;;;15.40;8.35;;;;;;;;;;5013041;28;20060;-82
2022/12/07 11:35:16;;;;;;;15.13;8.07;;;;;;;;;;5007531;28;20041;-82
2022/12/07 11:37:43;;;;;;;53.40;23.30;;;;;;;;;;5009578;28;20084;-81
2022/12/07 11:40:28;;;;;;;415.15;140.70;;;;;;;;;;4984244;28;20026;-81
2022/12/07 11:43:02;;;;;;;254.95;89.85;;;;;;;;;;5013911;28;20069;-81
2022/12/07 11:45:32;;;;;;;44.50;20.58;;;;;;;;;;5008377;28;20520;-78
2022/12/07 11:48:02;;;;;;;28.50;12.88;;;;;;;;;;5011457;28;20465;-81
2022/12/07 11:50:47;;;;;;;26.77;13.32;;;;;;;;;;5014435;28;20060;-81
2022/12/07 11:53:32;;;;;;;23.15;10.43;;;;;;;;;;5009610;28;20022;-79
2022/12/07 11:56:02;;;;;;;20.73;10.80;;;;;;;;;;5010593;28;20026;-79
2022/12/07 11:58:50;;;;;;;13.10;7.53;;;;;;;;;;5005394;28;20021;-84
2022/12/07 12:01:20;;;;;;;14.23;8.38;;;;;;;;;;5009291;28;20152;-81
2022/12/07 12:03:48;;;;;;;13.60;8.38;;;;;;;;;;5018287;28;20046;-84
2022/12/07 12:06:14;;;;;;;8.90;7.15;;;;;;;;;;5019819;28;20028;-81
2022/12/07 12:08:45;;;;;;;11.98;9.48;;;;;;;;;;5012192;28;20026;-82
2022/12/07 12:11:29;;;;;;;9.13;7.13;;;;;;;;;;5008890;28;20030;-81
2022/12/07 12:14:14;;;;;;;7.55;6.70;;;;;;;;;;4977074;28;20034;-80
2022/12/07 12:16:40;;;;;;;;;;;;;;;;;;4999637;28;20038;-81
2022/12/07 12:19:25;;;;;;;8.15;6.50;;;;;;;;;;5012212;28;19912;-82
2022/12/07 12:21:56;;;;;;;7.13;5.93;;;;;;;;;;4986844;28;20073;-77
2022/12/07 12:24:27;;;;;;;9.60;5.57;;;;;;;;;;5009622;28;20040;-83
2022/12/07 12:27:05;;;;;;;9.18;5.88;;;;;;;;;;5008662;28;20079;-83
2022/12/07 12:29:36;;;;;;;9.27;5.53;;;;;;;;;;5005909;28;20053;-84
2022/12/07 12:32:08;;;;;;;8.95;6.38;;;;;;;;;;5011621;28;20485;-85
2022/12/07 12:34:42;;;;;;;8.25;5.47;;;;;;;;;;4999805;28;20038;-82
2022/12/07 12:37:29;;;;;;;8.48;5.97;;;;;;;;;;5001513;28;20030;-80
2022/12/07 12:40:14;;;;;;;6.88;5.72;;;;;;;;;;4992029;28;20471;-83
2022/12/07 12:42:40;;;;;;;;;;;;;;;;;;5016566;28;20041;-84
2022/12/07 12:45:19;;;;;;;17.42;11.05;;;;;;;;;;5001158;28;19910;-82
2022/12/07 12:48:04;;;;;;;14.45;11.57;;;;;;;;;;4990291;28;20030;-86
2022/12/07 12:50:35;;;;;;;14.95;9.93;;;;;;;;;;5021140;28;20018;-82
2022/12/07 12:53:04;;;;;;;11.13;6.70;;;;;;;;;;5014001;28;20030;-83
2022/12/07 12:55:51;;;;;;;8.23;6.20;;;;;;;;;;5020029;28;20026;-83
2022/12/07 12:58:20;;;;;;;8.80;6.15;;;;;;;;;;5005749;28;20520;-83
2022/12/07 13:00:47;;;;;;;12.18;6.10;;;;;;;;;;5016277;28;20045;-82
2022/12/07 13:03:34;;;;;;;12.82;7.82;;;;;;;;;;5010912;28;20042;-82
2022/12/07 13:06:19;;;;;;;12.57;9.15;;;;;;;;;;5017255;28;20539;-85
2022/12/07 13:08:45;;;;;;;12.15;9.65;;;;;;;;;;5024852;28;20032;-80
2022/12/07 13:11:19;;;;;;;48.28;31.15;;;;;;;;;;5017377;28;20022;-80
2022/12/07 13:13:45;;;;;;;10.90;8.10;;;;;;;;;;5022983;28;20018;-78
2022/12/07 13:16:12;;;;;;;11.45;7.38;;;;;;;;;;5017702;28;20084;-81
2022/12/07 13:18:38;;;;;;;22.45;14.63;;;;;;;;;;5024811;28;20083;-79
2022/12/07 13:21:07;;;;;;;18.50;13.55;;;;;;;;;;5017933;28;20053;-80
2022/12/07 13:23:55;;;;;;;10.43;7.45;;;;;;;;;;5018667;28;20096;-79
2022/12/07 13:26:23;;;;;;;10.63;7.63;;;;;;;;;;5015553;28;20068;-81
2022/12/07 13:28:51;;;;;;;12.43;7.78;;;;;;;;;;5009903;28;20113;-81
2022/12/07 13:31:17;;;;;;;12.32;8.18;;;;;;;;;;5005771;28;20750;-81
2022/12/07 13:33:45;;;;;;;14.35;8.23;;;;;;;;;;4999428;28;20029;-80
2022/12/07 13:36:35;;;;;;;11.07;7.30;;;;;;;;;;5005877;28;20469;-79
2022/12/07 13:39:11;;;;;;;12.02;7.03;;;;;;;;;;5034521;28;20069;-81
2022/12/07 13:41:37;;;;;;;14.50;8.00;;;;;;;;;;5002255;28;20034;-81
2022/12/07 13:44:10;;;;;;;7.88;6.43;;;;;;;;;;4997274;28;20394;-83
2022/12/07 13:46:43;;;;;;;22.70;10.65;;;;;;;;;;4996080;28;20022;-81
2022/12/07 13:49:27;;;;;;;18.08;8.90;;;;;;;;;;5004951;28;20116;-83
2022/12/07 13:51:56;;;;;;;;;;;;;;;;;;5004403;28;20085;-85
2022/12/07 13:54:22;;;;;;;15.07;8.60;;;;;;;;;;4999410;28;19965;-83
2022/12/07 13:56:50;;;;;;;11.48;8.30;;;;;;;;;;5004972;28;20018;-80
2022/12/07 13:59:18;;;;;;;20.95;10.50;;;;;;;;;;5019916;28;20488;-81
2022/12/07 14:01:46;;;;;;;12.00;8.23;;;;;;;;;;4999248;28;20076;-84
2022/12/07 14:04:20;;;;;;;28.33;13.63;;;;;;;;;;4979750;28;20412;-82
2022/12/07 14:06:50;;;;;;;11.57;8.23;;;;;;;;;;4982418;28;20521;-85
2022/12/07 14:09:26;;;;;;;16.90;8.25;;;;;;;;;;5002123;28;20037;-84
2022/12/07 14:11:53;;;;;;;10.65;8.32;;;;;;;;;;4993840;28;20034;-81
2022/12/07 14:14:24;;;;;;;14.23;9.27;;;;;;;;;;5001004;28;20037;-80
2022/12/07 14:17:09;;;;;;;54.17;40.13;;;;;;;;;;5004404;28;20540;-83
2022/12/07 14:19:41;;;;;;;57.78;33.72;;;;;;;;;;5000305;28;20045;-84
2022/12/07 14:22:08;;;;;;;32.97;15.90;;;;;;;;;;4998313;28;20148;-84
2022/12/07 14:24:44;;;;;;;29.35;14.93;;;;;;;;;;4994687;28;20038;-86
2022/12/07 14:27:30;;;;;;;23.83;12.00;;;;;;;;;;4980147;28;21654;-83
2022/12/07 14:29:57;;;;;;;27.90;12.60;;;;;;;;;;4984276;28;20030;-84
2022/12/07 14:32:30;;;;;;;23.05;10.15;;;;;;;;;;4977672;28;20087;-85
2022/12/07 14:35:00;;;;;;;21.45;10.93;;;;;;;;;;4997728;28;20018;-87
2022/12/07 14:37:26;;;;;;;24.38;12.52;;;;;;;;;;4998171;28;20404;-87
2022/12/07 14:39:53;;;;;;;16.80;9.65;;;;;;;;;;4981435;28;20105;-85
2022/12/07 14:42:19;;;;;;;24.13;11.02;;;;;;;;;;4996049;28;20087;-89